createdAt,value
2017-06-03T00:02:19.562Z,93.80
2017-06-03T00:04:48.533Z,93.80
2017-06-03T00:07:16.750Z,93.80
2017-06-03T00:09:44.965Z,93.70
2017-06-03T00:12:13.233Z,93.90
2017-06-03T00:14:41.457Z,93.90
2017-06-03T00:17:09.683Z,94.10
2017-06-03T00:19:37.905Z,93.90
2017-06-03T00:22:06.911Z,94.00
2017-06-03T00:24:35.122Z,94.00
2017-06-03T00:27:03.325Z,93.80
2017-06-03T00:29:31.523Z,93.90
2017-06-03T00:31:59.764Z,94.30
2017-06-03T00:34:27.974Z,93.90
2017-06-03T00:36:56.196Z,93.80
2017-06-03T00:39:24.424Z,93.80
2017-06-03T00:41:52.626Z,93.90
2017-06-03T00:44:20.825Z,93.80
2017-06-03T00:46:49.050Z,94.00
2017-06-03T00:49:17.244Z,93.90
2017-06-03T00:51:45.451Z,94.00
2017-06-03T00:54:13.691Z,94.00
2017-06-03T00:56:41.912Z,94.10
2017-06-03T00:59:10.155Z,94.10
2017-06-03T01:01:38.363Z,94.20
2017-06-03T01:04:06.572Z,93.90
2017-06-03T01:06:34.797Z,94.00
2017-06-03T01:09:02.993Z,93.40
2017-06-03T01:11:31.998Z,93.90
2017-06-03T01:14:00.966Z,93.80
2017-06-03T01:16:29.183Z,93.80
2017-06-03T01:18:57.404Z,94.10
2017-06-03T01:21:25.599Z,94.10
2017-06-03T01:23:54.603Z,94.10
2017-06-03T01:26:23.567Z,94.00
2017-06-03T01:28:51.772Z,94.30
2017-06-03T01:31:20.000Z,94.40
2017-06-03T01:33:48.220Z,94.30
2017-06-03T01:36:16.444Z,94.50
2017-06-03T01:38:44.657Z,94.60
2017-06-03T01:41:13.622Z,94.90
2017-06-03T01:43:41.851Z,94.60
2017-06-03T01:46:10.061Z,94.40
2017-06-03T01:48:38.284Z,94.40
2017-06-03T01:51:06.479Z,94.30
2017-06-03T01:53:34.698Z,94.50
2017-06-03T01:56:02.923Z,94.70
2017-06-03T01:58:31.137Z,94.80
2017-06-03T02:00:59.347Z,95.30
2017-06-03T02:03:28.320Z,95.70
2017-06-03T02:05:56.559Z,95.70
2017-06-03T02:08:24.765Z,95.30
2017-06-03T02:10:52.969Z,95.40
2017-06-03T02:13:21.180Z,95.10
2017-06-03T02:15:49.392Z,95.30
2017-06-03T02:18:17.631Z,95.30
2017-06-03T02:20:45.841Z,95.40
2017-06-03T02:23:14.049Z,95.40
2017-06-03T02:25:42.268Z,95.20
2017-06-03T02:28:10.478Z,95.40
2017-06-03T02:30:39.517Z,95.70
2017-06-03T02:33:07.725Z,95.70
2017-06-03T02:35:35.921Z,95.60
2017-06-03T02:38:04.928Z,95.90
2017-06-03T02:40:33.135Z,96.10
2017-06-03T02:43:01.356Z,95.80
2017-06-03T02:45:30.345Z,96.50
2017-06-03T02:47:59.334Z,95.90
2017-06-03T02:50:28.325Z,95.40
2017-06-03T02:52:57.317Z,95.40
2017-06-03T02:55:25.551Z,95.40
2017-06-03T02:57:53.760Z,95.10
2017-06-03T03:00:21.959Z,94.80
2017-06-03T03:02:50.174Z,95.40
2017-06-03T03:05:18.373Z,95.40
2017-06-03T03:07:46.599Z,95.40
2017-06-03T03:10:14.817Z,95.90
2017-06-03T03:12:43.026Z,95.90
2017-06-03T03:15:11.248Z,95.60
2017-06-03T03:17:39.460Z,95.60
2017-06-03T03:20:08.449Z,95.30
2017-06-03T03:22:37.424Z,96.00
2017-06-03T03:25:05.626Z,95.70
2017-06-03T03:27:34.610Z,95.10
2017-06-03T03:30:03.599Z,94.90
2017-06-03T03:32:32.592Z,95.00
2017-06-03T03:35:01.588Z,94.70
2017-06-03T03:37:29.787Z,94.60
2017-06-03T03:39:58.033Z,94.80
2017-06-03T03:42:27.016Z,95.00
2017-06-03T03:44:55.245Z,94.70
2017-06-03T03:47:23.486Z,94.50
2017-06-03T03:49:52.460Z,94.90
2017-06-03T03:52:20.671Z,94.80
2017-06-03T03:54:48.879Z,94.90
2017-06-03T03:57:17.101Z,95.00
2017-06-03T03:59:46.071Z,95.10
2017-06-03T04:02:14.286Z,95.10
2017-06-03T04:04:42.512Z,94.90
2017-06-03T04:07:10.716Z,94.90
2017-06-03T04:09:38.943Z,95.10
2017-06-03T04:12:07.141Z,95.00
2017-06-03T04:14:35.335Z,95.20
2017-06-03T04:17:04.323Z,95.30
2017-06-03T04:19:33.301Z,95.40
2017-06-03T04:22:01.535Z,95.60
2017-06-03T04:24:29.760Z,95.30
2017-06-03T04:26:58.737Z,95.20
2017-06-03T04:29:26.961Z,95.10
2017-06-03T04:31:55.153Z,95.20
2017-06-03T04:34:23.381Z,95.30
2017-06-03T04:36:52.353Z,95.60
2017-06-03T04:39:20.576Z,95.60
2017-06-03T04:41:48.786Z,95.80
2017-06-03T04:44:16.995Z,95.40
2017-06-03T04:46:45.984Z,95.00
2017-06-03T04:49:14.943Z,95.10
2017-06-03T04:51:43.153Z,95.10
2017-06-03T04:54:12.143Z,94.80
2017-06-03T04:56:41.102Z,94.80
2017-06-03T04:59:09.327Z,94.80
2017-06-03T05:01:37.536Z,94.50
2017-06-03T05:04:05.747Z,93.40
2017-06-03T05:06:34.731Z,93.00
2017-06-03T05:09:02.929Z,93.00
2017-06-03T05:11:31.149Z,92.90
2017-06-03T05:13:59.347Z,92.90
2017-06-03T05:16:27.557Z,92.20
2017-06-03T05:18:55.768Z,92.70
2017-06-03T05:21:23.965Z,93.00
2017-06-03T05:23:52.185Z,93.00
2017-06-03T05:26:20.391Z,93.10
2017-06-03T05:28:48.599Z,92.90
2017-06-03T05:31:17.577Z,91.80
2017-06-03T05:33:45.790Z,91.80
2017-06-03T05:36:14.025Z,91.90
2017-06-03T05:38:42.237Z,92.00
2017-06-03T05:41:10.451Z,91.50
2017-06-03T05:43:38.671Z,91.50
2017-06-03T05:46:06.877Z,91.70
2017-06-03T05:48:34.908Z,90.30
2017-06-03T05:51:03.885Z,89.10
2017-06-03T05:53:32.116Z,89.10
2017-06-03T05:56:00.349Z,90.50
2017-06-03T05:58:29.330Z,91.70
2017-06-03T06:00:57.545Z,91.70
2017-06-03T06:03:25.495Z,92.10
2017-06-03T06:05:53.570Z,91.90
2017-06-03T06:08:21.782Z,92.00
2017-06-03T06:10:49.800Z,91.60
2017-06-03T06:13:17.843Z,91.90
2017-06-03T06:15:46.065Z,91.90
2017-06-03T06:18:14.491Z,91.80
2017-06-03T06:20:42.723Z,91.40
2017-06-03T06:23:10.932Z,91.70
2017-06-03T06:25:39.153Z,91.30
2017-06-03T06:28:07.346Z,90.80
2017-06-03T06:30:35.575Z,90.80
2017-06-03T06:33:03.785Z,90.30
2017-06-03T06:35:32.025Z,90.80
2017-06-03T06:38:00.233Z,90.20
2017-06-03T06:40:28.437Z,90.30
2017-06-03T06:42:56.677Z,89.20
2017-06-03T06:45:24.877Z,87.80
2017-06-03T06:47:53.087Z,90.10
2017-06-03T06:50:21.325Z,89.30
2017-06-03T06:52:49.534Z,89.00
2017-06-03T06:55:17.783Z,89.70
2017-06-03T06:57:46.007Z,89.20
2017-06-03T07:00:14.221Z,87.60
2017-06-03T07:02:42.449Z,89.80
2017-06-03T07:05:10.717Z,88.90
2017-06-03T07:07:39.044Z,90.20
2017-06-03T07:10:07.254Z,90.60
2017-06-03T07:12:35.462Z,90.70
2017-06-03T07:15:03.686Z,90.00
2017-06-03T07:17:31.891Z,88.30
2017-06-03T07:20:00.121Z,86.20
2017-06-03T07:22:28.315Z,86.30
2017-06-03T07:24:56.526Z,87.00
2017-06-03T07:27:24.757Z,89.00
2017-06-03T07:29:52.956Z,87.60
2017-06-03T07:32:21.210Z,89.60
2017-06-03T07:34:49.420Z,85.70
2017-06-03T07:37:18.409Z,85.80
2017-06-03T07:39:46.614Z,86.50
2017-06-03T07:42:14.813Z,83.00
2017-06-03T07:44:43.069Z,83.80
2017-06-03T07:47:11.301Z,81.90
2017-06-03T07:49:39.518Z,82.10
2017-06-03T07:52:07.734Z,81.70
2017-06-03T07:54:35.978Z,80.00
2017-06-03T07:57:04.205Z,81.20
2017-06-03T07:59:32.875Z,84.10
2017-06-03T08:02:01.090Z,84.40
2017-06-03T08:04:29.354Z,81.50
2017-06-03T08:06:57.552Z,81.30
2017-06-03T08:09:25.759Z,81.60
2017-06-03T08:11:54.001Z,79.70
2017-06-03T08:14:22.224Z,79.80
2017-06-03T08:16:50.481Z,79.20
2017-06-03T08:19:18.716Z,77.20
2017-06-03T08:21:46.934Z,76.00
2017-06-03T08:24:15.209Z,75.80
2017-06-03T08:26:43.413Z,77.00
2017-06-03T08:29:12.406Z,74.10
2017-06-03T08:31:42.462Z,73.90
2017-06-03T08:34:10.905Z,73.90
2017-06-03T08:36:39.150Z,73.80
2017-06-03T08:39:07.354Z,75.60
2017-06-03T08:41:35.597Z,73.50
2017-06-03T08:44:03.807Z,78.40
2017-06-03T08:46:32.032Z,76.90
2017-06-03T08:49:00.255Z,78.10
2017-06-03T08:51:28.463Z,78.40
2017-06-03T08:53:56.704Z,79.50
2017-06-03T08:56:24.900Z,79.20
2017-06-03T08:58:53.136Z,79.70
2017-06-03T09:01:21.377Z,80.90
2017-06-03T09:03:49.669Z,80.90
2017-06-03T09:06:17.934Z,81.30
2017-06-03T09:08:46.156Z,83.20
2017-06-03T09:11:14.390Z,83.30
2017-06-03T09:13:42.627Z,81.20
2017-06-03T09:16:10.913Z,80.40
2017-06-03T09:18:39.193Z,81.60
2017-06-03T09:21:07.417Z,81.50
2017-06-03T09:23:36.406Z,81.50
2017-06-03T09:26:05.400Z,80.90
2017-06-03T09:28:34.385Z,81.00
2017-06-03T09:31:02.629Z,80.80
2017-06-03T09:33:30.871Z,80.90
2017-06-03T09:35:59.080Z,80.80
2017-06-03T09:38:28.969Z,80.00
2017-06-03T09:40:57.180Z,79.20
2017-06-03T09:43:25.432Z,79.30
2017-06-03T09:45:53.651Z,77.80
2017-06-03T09:48:21.878Z,75.50
2017-06-03T09:50:50.121Z,75.20
2017-06-03T09:53:18.343Z,74.70
2017-06-03T09:55:46.592Z,76.00
2017-06-03T09:58:14.821Z,73.60
2017-06-03T10:00:43.797Z,73.20
2017-06-03T10:03:12.037Z,73.00
2017-06-03T10:05:40.263Z,73.40
2017-06-03T10:08:09.262Z,70.70
2017-06-03T10:10:37.481Z,70.50
2017-06-03T10:13:05.706Z,70.00
2017-06-03T10:15:33.937Z,71.10
2017-06-03T10:18:02.199Z,69.90
2017-06-03T10:20:30.461Z,69.60
2017-06-03T10:22:58.669Z,68.80
2017-06-03T10:25:26.887Z,71.10
2017-06-03T10:27:55.118Z,71.20
2017-06-03T10:30:23.324Z,72.80
2017-06-03T10:32:51.595Z,73.40
2017-06-03T10:35:19.791Z,75.00
2017-06-03T10:37:48.777Z,75.40
2017-06-03T10:40:17.000Z,75.40
2017-06-03T10:42:45.241Z,73.00
2017-06-03T10:45:13.496Z,74.50
2017-06-03T10:47:41.713Z,74.60
2017-06-03T10:50:09.957Z,74.30
2017-06-03T10:52:38.181Z,75.60
2017-06-03T10:55:06.406Z,75.60
2017-06-03T10:57:34.629Z,77.00
2017-06-03T11:00:02.852Z,74.40
2017-06-03T11:02:31.079Z,75.50
2017-06-03T11:04:59.316Z,75.20
2017-06-03T11:07:28.290Z,74.10
2017-06-03T11:09:56.529Z,74.00
2017-06-03T11:12:24.741Z,75.30
2017-06-03T11:14:52.961Z,78.00
2017-06-03T11:17:21.201Z,76.50
2017-06-03T11:19:49.421Z,75.60
2017-06-03T11:22:17.644Z,75.20
2017-06-03T11:24:46.620Z,72.80
2017-06-03T11:27:14.845Z,72.60
2017-06-03T11:29:43.067Z,72.30
2017-06-03T11:32:11.265Z,72.10
2017-06-03T11:34:40.480Z,71.00
2017-06-03T11:37:08.721Z,70.80
2017-06-03T11:39:36.928Z,71.60
2017-06-03T11:42:05.152Z,69.20
2017-06-03T11:44:33.397Z,70.40
2017-06-03T11:47:01.671Z,68.10
2017-06-03T11:49:29.883Z,68.50
2017-06-03T11:51:58.094Z,66.40
2017-06-03T11:54:26.545Z,66.70
2017-06-03T11:56:54.750Z,66.10
2017-06-03T11:59:22.973Z,67.90
2017-06-03T12:01:51.213Z,68.90
2017-06-03T12:04:19.407Z,67.70
2017-06-03T12:06:47.632Z,68.20
2017-06-03T12:09:16.648Z,69.60
2017-06-03T12:11:44.945Z,69.30
2017-06-03T12:14:13.193Z,71.30
2017-06-03T12:16:41.426Z,72.90
2017-06-03T12:19:09.654Z,75.00
2017-06-03T12:21:37.879Z,72.60
2017-06-03T12:24:06.902Z,70.90
2017-06-03T12:26:35.124Z,70.90
2017-06-03T12:29:03.357Z,68.90
2017-06-03T12:31:31.656Z,68.30
2017-06-03T12:33:59.870Z,68.10
2017-06-03T12:36:28.097Z,67.50
2017-06-03T12:38:56.321Z,67.50
2017-06-03T12:41:24.589Z,67.30
2017-06-03T12:43:52.814Z,66.50
2017-06-03T12:46:21.022Z,64.10
2017-06-03T12:48:49.271Z,63.00
2017-06-03T12:51:17.487Z,67.50
2017-06-03T12:53:45.720Z,65.10
2017-06-03T12:56:13.950Z,66.60
2017-06-03T12:58:42.925Z,65.60
2017-06-03T13:01:11.174Z,65.50
2017-06-03T13:03:39.402Z,67.10
2017-06-03T13:06:07.622Z,64.50
2017-06-03T13:08:35.854Z,66.20
2017-06-03T13:11:04.078Z,67.60
2017-06-03T13:13:32.329Z,67.60
2017-06-03T13:16:00.540Z,67.70
2017-06-03T13:18:28.752Z,66.30
2017-06-03T13:20:56.977Z,67.10
2017-06-03T13:23:25.217Z,67.10
2017-06-03T13:25:53.482Z,67.20
2017-06-03T13:28:21.736Z,62.50
2017-06-03T13:30:50.751Z,61.40
2017-06-03T13:33:19.013Z,61.30
2017-06-03T13:35:48.016Z,64.30
2017-06-03T13:38:16.279Z,64.20
2017-06-03T13:40:45.289Z,62.10
2017-06-03T13:43:13.514Z,61.80
2017-06-03T13:45:41.723Z,61.00
2017-06-03T13:48:10.696Z,63.70
2017-06-03T13:50:38.952Z,63.70
2017-06-03T13:53:07.186Z,62.50
2017-06-03T13:55:35.410Z,59.50
2017-06-03T13:58:03.639Z,59.30
2017-06-03T14:00:31.850Z,59.80
2017-06-03T14:03:00.087Z,58.60
2017-06-03T14:05:28.298Z,57.80
2017-06-03T14:07:56.507Z,58.30
2017-06-03T14:10:24.756Z,59.60
2017-06-03T14:12:52.969Z,58.90
2017-06-03T14:15:21.255Z,58.90
2017-06-03T14:17:49.479Z,58.70
2017-06-03T14:20:17.705Z,59.10
2017-06-03T14:22:45.956Z,58.60
2017-06-03T14:25:14.931Z,59.90
2017-06-03T14:27:43.172Z,59.90
2017-06-03T14:30:11.396Z,61.00
2017-06-03T14:32:39.614Z,61.60
2017-06-03T14:35:07.872Z,61.80
2017-06-03T14:37:36.083Z,60.00
2017-06-03T14:40:04.352Z,60.70
2017-06-03T14:42:32.556Z,60.10
2017-06-03T14:45:01.535Z,56.80
2017-06-03T14:47:29.761Z,56.70
2017-06-03T14:49:57.971Z,56.40
2017-06-03T14:52:26.211Z,57.60
2017-06-03T14:54:54.427Z,57.40
2017-06-03T14:57:22.634Z,57.00
2017-06-03T14:59:51.090Z,57.10
2017-06-03T15:02:19.301Z,57.70
2017-06-03T15:04:47.539Z,57.90
2017-06-03T15:07:15.764Z,57.90
2017-06-03T15:09:43.988Z,59.30
2017-06-03T15:12:12.213Z,58.60
2017-06-03T15:14:40.436Z,59.60
2017-06-03T15:17:08.916Z,58.50
2017-06-03T15:19:37.900Z,59.10
2017-06-03T15:22:06.100Z,58.40
2017-06-03T15:24:34.327Z,58.70
2017-06-03T15:27:02.550Z,59.40
2017-06-03T15:29:30.776Z,59.00
2017-06-03T15:31:59.013Z,59.90
2017-06-03T15:34:27.231Z,59.40
2017-06-03T15:36:55.470Z,59.60
2017-06-03T15:39:23.711Z,60.00
2017-06-03T15:41:52.698Z,59.70
2017-06-03T15:44:21.680Z,59.10
2017-06-03T15:46:49.897Z,59.10
2017-06-03T15:49:18.126Z,59.80
2017-06-03T15:51:46.346Z,59.90
2017-06-03T15:54:14.425Z,61.20
2017-06-03T15:56:42.456Z,63.30
2017-06-03T15:59:10.667Z,63.00
2017-06-03T16:01:38.882Z,63.30
2017-06-03T16:04:07.096Z,64.10
2017-06-03T16:06:35.320Z,62.90
2017-06-03T16:09:03.529Z,61.80
2017-06-03T16:11:32.506Z,61.10
2017-06-03T16:14:00.731Z,61.00
2017-06-03T16:16:28.937Z,61.50
2017-06-03T16:18:57.479Z,60.00
2017-06-03T16:21:25.685Z,61.00
2017-06-03T16:23:53.896Z,60.70
2017-06-03T16:26:22.885Z,61.60
2017-06-03T16:28:51.097Z,61.40
2017-06-03T16:31:19.334Z,62.80
2017-06-03T16:33:47.527Z,63.30
2017-06-03T16:36:15.739Z,62.90
2017-06-03T16:38:43.987Z,63.40
2017-06-03T16:41:12.212Z,63.70
2017-06-03T16:43:40.549Z,63.50
2017-06-03T16:46:08.753Z,63.60
2017-06-03T16:48:36.993Z,64.10
2017-06-03T16:51:05.211Z,64.00
2017-06-03T16:53:33.426Z,64.00
2017-06-03T16:56:01.644Z,64.80
2017-06-03T16:58:29.854Z,64.60
2017-06-03T17:00:58.848Z,65.90
2017-06-03T17:03:27.057Z,65.70
2017-06-03T17:05:55.284Z,65.40
2017-06-03T17:08:24.287Z,65.00
2017-06-03T17:10:53.769Z,65.30
2017-06-03T17:13:21.991Z,65.20
2017-06-03T17:15:50.206Z,64.60
2017-06-03T17:18:18.416Z,63.50
2017-06-03T17:20:46.702Z,63.60
2017-06-03T17:23:14.922Z,62.70
2017-06-03T17:25:43.144Z,62.30
2017-06-03T17:28:11.358Z,61.80
2017-06-03T17:30:39.577Z,62.10
2017-06-03T17:33:07.818Z,62.10
2017-06-03T17:35:36.006Z,60.70
2017-06-03T17:38:04.235Z,61.50
2017-06-03T17:40:32.444Z,62.00
2017-06-03T17:43:00.641Z,61.60
2017-06-03T17:45:28.878Z,62.40
2017-06-03T17:47:57.081Z,62.90
2017-06-03T17:50:25.324Z,62.20
2017-06-03T17:52:53.520Z,62.20
2017-06-03T17:55:21.769Z,62.30
2017-06-03T17:57:49.986Z,62.70
2017-06-03T18:00:18.178Z,62.70
2017-06-03T18:02:46.402Z,63.40
2017-06-03T18:05:14.607Z,63.40
2017-06-03T18:07:43.583Z,64.00
2017-06-03T18:10:11.810Z,63.90
2017-06-03T18:12:40.032Z,63.80
2017-06-03T18:15:08.272Z,63.20
2017-06-03T18:17:36.461Z,64.20
2017-06-03T18:20:04.660Z,64.30
2017-06-03T18:22:32.689Z,65.50
2017-06-03T18:25:00.713Z,64.80
2017-06-03T18:27:34.508Z,64.80
2017-06-03T18:30:02.720Z,65.30
2017-06-03T18:32:30.956Z,65.70
2017-06-03T18:34:59.168Z,65.70
2017-06-03T18:37:27.399Z,66.10
2017-06-03T18:39:56.408Z,66.60
2017-06-03T18:42:24.648Z,66.60
2017-06-03T18:44:52.860Z,65.80
2017-06-03T18:47:21.846Z,66.90
2017-06-03T18:49:50.065Z,66.70
2017-06-03T18:52:18.296Z,66.50
2017-06-03T18:54:46.520Z,66.80
2017-06-03T18:57:14.722Z,66.90
2017-06-03T18:59:42.939Z,67.20
2017-06-03T19:02:11.204Z,66.30
2017-06-03T19:04:39.459Z,67.20
2017-06-03T19:07:08.448Z,68.70
2017-06-03T19:09:37.454Z,70.70
2017-06-03T19:12:05.721Z,70.60
2017-06-03T19:14:33.961Z,72.20
2017-06-03T19:17:02.201Z,72.90
2017-06-03T19:19:31.214Z,75.50
2017-06-03T19:21:59.523Z,76.80
2017-06-03T19:24:27.788Z,78.60
2017-06-03T19:26:56.141Z,79.70
2017-06-03T19:29:24.365Z,80.30
2017-06-03T19:31:53.179Z,82.40
2017-06-03T19:34:21.908Z,82.30
2017-06-03T19:36:50.156Z,82.30
2017-06-03T19:39:18.392Z,82.40
2017-06-03T19:41:46.602Z,82.30
2017-06-03T19:44:14.836Z,82.40
2017-06-03T19:46:42.871Z,83.00
2017-06-03T19:49:11.695Z,83.10
2017-06-03T19:51:40.031Z,83.00
2017-06-03T19:54:08.246Z,82.30
2017-06-03T19:56:36.471Z,81.30
2017-06-03T19:59:04.719Z,81.80
2017-06-03T20:01:32.947Z,81.50
2017-06-03T20:04:01.198Z,81.60
2017-06-03T20:06:29.441Z,81.20
2017-06-03T20:08:57.675Z,81.30
2017-06-03T20:11:25.950Z,81.70
2017-06-03T20:13:55.178Z,81.20
2017-06-03T20:16:23.471Z,81.50
2017-06-03T20:18:51.711Z,81.80
2017-06-03T20:21:19.925Z,82.70
2017-06-03T20:23:48.148Z,83.70
2017-06-03T20:26:16.358Z,84.60
2017-06-03T20:28:45.361Z,85.30
2017-06-03T20:31:13.571Z,85.40
2017-06-03T20:33:41.790Z,86.10
2017-06-03T20:36:10.803Z,87.40
2017-06-03T20:38:39.013Z,87.30
2017-06-03T20:41:07.262Z,86.80
2017-06-03T20:43:35.487Z,86.60
2017-06-03T20:46:03.689Z,86.20
2017-06-03T20:48:31.957Z,87.40
2017-06-03T20:51:00.962Z,87.70
2017-06-03T20:53:29.201Z,87.70
2017-06-03T20:55:57.411Z,88.30
2017-06-03T20:58:25.625Z,88.00
2017-06-03T21:00:53.853Z,88.60
2017-06-03T21:03:22.825Z,87.70
2017-06-03T21:05:51.066Z,87.70
2017-06-03T21:08:19.289Z,87.40
2017-06-03T21:10:48.278Z,89.80
2017-06-03T21:13:17.252Z,89.20
2017-06-03T21:15:45.461Z,89.10
2017-06-03T21:18:13.749Z,87.80
2017-06-03T21:20:41.970Z,89.20
2017-06-03T21:23:10.175Z,89.20
2017-06-03T21:25:38.407Z,90.40
2017-06-03T21:28:06.628Z,90.60
2017-06-03T21:30:34.872Z,90.90
2017-06-03T21:33:03.077Z,91.30
2017-06-03T21:35:31.288Z,91.80
2017-06-03T21:37:59.511Z,91.20
2017-06-03T21:40:28.485Z,92.60
2017-06-03T21:42:56.710Z,92.60
2017-06-03T21:45:24.952Z,93.30
2017-06-03T21:47:53.924Z,94.20
2017-06-03T21:50:22.133Z,94.20
2017-06-03T21:52:50.362Z,94.30
2017-06-03T21:55:18.606Z,93.90
2017-06-03T21:57:46.821Z,93.40
2017-06-03T22:00:15.026Z,93.20
2017-06-03T22:02:43.255Z,92.80
2017-06-03T22:05:11.535Z,92.30
2017-06-03T22:07:39.758Z,91.90
2017-06-03T22:10:08.101Z,91.40
2017-06-03T22:12:36.321Z,91.80
2017-06-03T22:15:04.569Z,91.40
2017-06-03T22:17:32.836Z,92.50
2017-06-03T22:20:01.874Z,91.60
2017-06-03T22:22:30.085Z,91.60
2017-06-03T22:24:58.324Z,91.70
2017-06-03T22:27:26.608Z,92.00
2017-06-03T22:29:54.816Z,92.00
2017-06-03T22:32:23.111Z,91.70
2017-06-03T22:34:52.101Z,91.80
2017-06-03T22:37:20.340Z,91.80
2017-06-03T22:39:48.555Z,91.60
2017-06-03T22:42:17.558Z,91.10
2017-06-03T22:44:45.857Z,91.10
2017-06-03T22:47:14.081Z,90.90
2017-06-03T22:49:42.276Z,91.50
2017-06-03T22:52:10.504Z,91.20
2017-06-03T22:54:38.709Z,91.30
2017-06-03T22:57:07.720Z,91.10
2017-06-03T22:59:35.922Z,91.10
2017-06-03T23:02:04.131Z,91.30
2017-06-03T23:04:32.373Z,91.40
2017-06-03T23:07:00.579Z,91.20
2017-06-03T23:09:28.805Z,91.50
2017-06-03T23:11:57.016Z,91.70
2017-06-03T23:14:25.299Z,91.60
2017-06-03T23:16:53.523Z,92.00
2017-06-03T23:19:21.732Z,91.90
2017-06-03T23:21:49.970Z,92.10
2017-06-03T23:24:18.173Z,92.20
2017-06-03T23:26:46.389Z,92.50
2017-06-03T23:29:15.402Z,92.80
2017-06-03T23:31:43.621Z,92.80
2017-06-03T23:34:11.855Z,92.60
2017-06-03T23:36:40.067Z,92.40
2017-06-03T23:39:08.277Z,92.40
2017-06-03T23:41:37.261Z,92.60
2017-06-03T23:44:05.461Z,92.60
2017-06-03T23:46:33.686Z,92.50
2017-06-03T23:49:01.895Z,92.60
2017-06-03T23:51:30.854Z,92.90
2017-06-03T23:53:59.066Z,92.90
2017-06-03T23:56:28.021Z,92.80
2017-06-03T23:58:56.262Z,92.80
